createdAt,value
2019-02-27T00:01:43.957Z,33.10
2019-02-27T00:04:49.919Z,33.10
2019-02-27T00:07:55.504Z,33.00
2019-02-27T00:11:01.088Z,32.90
2019-02-27T00:14:07.868Z,32.90
2019-02-27T00:17:15.090Z,32.80
2019-02-27T00:20:21.440Z,32.80
2019-02-27T00:23:27.413Z,32.60
2019-02-27T00:26:33.482Z,32.60
2019-02-27T00:29:39.337Z,32.60
2019-02-27T00:32:45.333Z,32.60
2019-02-27T00:35:52.424Z,32.50
2019-02-27T00:38:58.562Z,32.40
2019-02-27T00:42:05.636Z,32.30
2019-02-27T00:45:11.700Z,32.30
2019-02-27T00:48:17.764Z,32.20
2019-02-27T00:51:23.866Z,32.10
2019-02-27T00:54:31.428Z,32.10
2019-02-27T00:57:37.488Z,32.10
2019-02-27T01:00:43.440Z,32.00
2019-02-27T01:03:49.408Z,32.00
2019-02-27T01:06:55.403Z,32.00
2019-02-27T01:10:01.320Z,32.00
2019-02-27T01:13:09.023Z,31.90
2019-02-27T01:16:17.238Z,31.90
2019-02-27T01:19:22.572Z,31.70
2019-02-27T01:22:28.577Z,31.70
2019-02-27T01:25:34.496Z,31.80
2019-02-27T01:28:44.722Z,31.70
2019-02-27T01:31:48.104Z,31.70
2019-02-27T01:34:54.013Z,31.80
2019-02-27T01:37:59.915Z,31.70
2019-02-27T01:41:05.932Z,31.70
2019-02-27T01:44:13.637Z,31.70
2019-02-27T01:47:20.517Z,31.60
2019-02-27T01:50:37.135Z,31.60
2019-02-27T01:53:43.128Z,31.50
2019-02-27T01:56:49.088Z,31.50
2019-02-27T01:59:55.111Z,31.50
2019-02-27T02:03:01.112Z,31.50
2019-02-27T02:06:07.033Z,31.50
2019-02-27T02:09:34.293Z,31.40
2019-02-27T02:12:41.640Z,31.50
2019-02-27T02:16:13.143Z,31.30
2019-02-27T02:20:00.013Z,31.30
2019-02-27T02:23:49.856Z,31.30
2019-02-27T02:27:29.608Z,31.40
2019-02-27T02:31:15.307Z,31.30
2019-02-27T02:34:39.817Z,31.30
2019-02-27T02:38:19.171Z,31.30
2019-02-27T02:42:16.904Z,31.30
2019-02-27T02:45:53.079Z,31.20
2019-02-27T02:49:42.449Z,31.30
2019-02-27T02:53:24.968Z,31.20
2019-02-27T02:57:00.521Z,31.40
2019-02-27T03:00:18.565Z,31.20
2019-02-27T03:04:23.528Z,31.30
2019-02-27T03:07:50.099Z,31.30
2019-02-27T03:11:42.376Z,31.20
2019-02-27T03:15:28.824Z,31.30
2019-02-27T03:18:55.456Z,31.30
2019-02-27T03:22:32.948Z,31.20
2019-02-27T03:26:21.958Z,31.20
2019-02-27T03:30:34.207Z,31.10
2019-02-27T03:34:10.373Z,31.30
2019-02-27T03:37:26.610Z,31.20
2019-02-27T03:41:28.371Z,31.10
2019-02-27T03:45:09.511Z,31.10
2019-02-27T03:48:53.205Z,31.10
2019-02-27T03:52:36.481Z,31.10
2019-02-27T03:56:18.776Z,31.10
2019-02-27T04:00:09.640Z,31.10
2019-02-27T04:04:02.111Z,31.10
2019-02-27T04:07:53.360Z,31.20
2019-02-27T04:10:59.230Z,31.10
2019-02-27T04:14:29.657Z,31.10
2019-02-27T04:17:33.535Z,31.10
2019-02-27T04:20:39.334Z,31.00
2019-02-27T04:23:49.016Z,31.00
2019-02-27T04:26:52.755Z,30.90
2019-02-27T04:29:58.764Z,31.00
2019-02-27T04:33:04.768Z,31.00
2019-02-27T04:36:12.750Z,31.00
2019-02-27T04:39:18.020Z,31.00
2019-02-27T04:42:25.754Z,31.00
2019-02-27T04:45:31.508Z,31.00
2019-02-27T04:48:37.271Z,31.00
2019-02-27T04:51:43.079Z,31.00
2019-02-27T04:54:48.992Z,30.90
2019-02-27T04:57:54.732Z,30.90
2019-02-27T05:01:00.564Z,30.90
2019-02-27T05:04:06.556Z,30.90
2019-02-27T05:07:12.416Z,30.90
2019-02-27T05:10:18.337Z,30.80
2019-02-27T05:13:24.232Z,31.00
2019-02-27T05:16:30.149Z,31.00
2019-02-27T05:19:37.213Z,31.10
2019-02-27T05:22:43.661Z,31.20
2019-02-27T05:25:49.462Z,31.20
2019-02-27T05:28:55.462Z,31.30
2019-02-27T05:32:01.402Z,31.40
2019-02-27T05:35:07.350Z,31.60
2019-02-27T05:38:13.208Z,31.70
2019-02-27T05:41:19.165Z,31.80
2019-02-27T05:44:25.458Z,32.00
2019-02-27T05:47:31.383Z,32.30
2019-02-27T05:50:37.256Z,31.90
2019-02-27T05:53:43.208Z,31.70
2019-02-27T05:56:49.741Z,31.70
2019-02-27T05:59:56.147Z,31.60
2019-02-27T06:03:01.896Z,31.70
2019-02-27T06:06:11.548Z,31.60
2019-02-27T06:09:15.370Z,31.60
2019-02-27T06:12:21.232Z,31.60
2019-02-27T06:15:34.303Z,31.50
2019-02-27T06:18:40.364Z,31.50
2019-02-27T06:21:46.219Z,31.60
2019-02-27T06:24:52.184Z,31.70
2019-02-27T06:27:58.072Z,31.70
2019-02-27T06:31:03.896Z,31.60
2019-02-27T06:34:09.747Z,31.50
2019-02-27T06:37:16.077Z,31.40
2019-02-27T06:40:22.088Z,31.40
2019-02-27T06:43:28.287Z,31.50
2019-02-27T06:46:34.208Z,31.30
2019-02-27T06:49:40.173Z,31.30
2019-02-27T06:52:46.131Z,31.30
2019-02-27T06:55:51.886Z,31.40
2019-02-27T06:58:57.900Z,31.40
2019-02-27T07:02:03.803Z,31.50
2019-02-27T07:05:13.297Z,31.40
2019-02-27T07:08:17.842Z,31.60
2019-02-27T07:11:23.936Z,31.50
2019-02-27T07:14:29.924Z,31.70
2019-02-27T07:17:35.852Z,31.70
2019-02-27T07:20:41.712Z,31.60
2019-02-27T07:23:47.601Z,31.70
2019-02-27T07:26:53.429Z,31.80
2019-02-27T07:29:59.531Z,31.80
2019-02-27T07:33:06.678Z,31.80
2019-02-27T07:36:14.223Z,31.80
2019-02-27T07:39:20.183Z,31.90
2019-02-27T07:42:26.100Z,31.90
2019-02-27T07:45:32.156Z,32.00
2019-02-27T07:48:38.274Z,32.00
2019-02-27T07:51:44.290Z,32.10
2019-02-27T07:54:50.285Z,32.20
2019-02-27T07:57:58.685Z,32.10
2019-02-27T08:01:04.690Z,32.10
2019-02-27T08:04:11.635Z,32.10
2019-02-27T08:07:17.468Z,32.20
2019-02-27T08:10:23.559Z,32.20
2019-02-27T08:13:29.631Z,32.20
2019-02-27T08:16:37.329Z,32.30
2019-02-27T08:19:45.358Z,32.40
2019-02-27T08:22:52.291Z,32.70
2019-02-27T08:25:58.385Z,32.50
2019-02-27T08:29:04.413Z,31.70
2019-02-27T08:32:10.308Z,31.60
2019-02-27T08:35:16.749Z,33.00
2019-02-27T08:38:23.631Z,33.40
2019-02-27T08:41:31.469Z,33.60
2019-02-27T08:44:37.216Z,33.80
2019-02-27T08:47:43.398Z,33.80
2019-02-27T08:50:50.255Z,33.80
2019-02-27T08:53:58.994Z,34.00
2019-02-27T08:57:03.707Z,33.90
2019-02-27T09:00:14.433Z,34.00
2019-02-27T09:03:21.128Z,34.00
2019-02-27T09:06:27.633Z,33.50
2019-02-27T09:09:36.135Z,35.20
2019-02-27T09:12:41.776Z,35.30
2019-02-27T09:15:47.736Z,35.20
2019-02-27T09:18:53.691Z,35.20
2019-02-27T09:21:59.984Z,35.10
2019-02-27T09:25:08.268Z,34.90
2019-02-27T09:28:15.252Z,34.60
2019-02-27T09:31:21.219Z,34.70
2019-02-27T09:34:27.483Z,34.50
2019-02-27T09:37:33.439Z,34.40
2019-02-27T09:40:39.655Z,34.30
2019-02-27T09:43:45.462Z,34.30
2019-02-27T09:46:52.421Z,34.20
2019-02-27T09:49:58.449Z,34.20
2019-02-27T09:53:04.425Z,34.20
2019-02-27T09:56:11.638Z,34.10
2019-02-27T09:59:19.682Z,34.20
2019-02-27T10:02:25.017Z,34.30
2019-02-27T10:05:31.226Z,34.20
2019-02-27T10:08:37.039Z,34.10
2019-02-27T10:11:42.789Z,34.20
2019-02-27T10:14:50.244Z,34.20
2019-02-27T10:17:56.151Z,34.20
2019-02-27T10:21:01.992Z,34.20
2019-02-27T10:24:08.073Z,34.20
2019-02-27T10:27:13.917Z,34.30
2019-02-27T10:30:20.032Z,34.40
2019-02-27T10:33:26.048Z,34.30
2019-02-27T10:36:32.832Z,33.90
2019-02-27T10:39:38.781Z,33.90
2019-02-27T10:42:44.752Z,34.00
2019-02-27T10:45:50.642Z,34.10
2019-02-27T10:48:56.456Z,34.30
2019-02-27T10:52:02.358Z,34.80
2019-02-27T10:55:11.362Z,36.90
2019-02-27T10:58:18.393Z,37.70
2019-02-27T11:01:24.436Z,38.10
2019-02-27T11:04:30.377Z,38.90
2019-02-27T11:07:36.216Z,38.80
2019-02-27T11:10:42.107Z,39.10
2019-02-27T11:13:51.415Z,38.90
2019-02-27T11:16:55.467Z,38.90
2019-02-27T11:20:01.488Z,39.00
2019-02-27T11:23:10.461Z,39.10
2019-02-27T11:26:16.411Z,40.00
2019-02-27T11:29:23.744Z,39.20
2019-02-27T11:32:29.831Z,39.10
2019-02-27T11:35:36.814Z,39.10
2019-02-27T11:38:42.884Z,39.00
2019-02-27T11:41:49.157Z,38.80
2019-02-27T11:44:55.106Z,38.80
2019-02-27T11:48:01.173Z,38.70
2019-02-27T11:51:07.371Z,38.60
2019-02-27T11:54:14.573Z,38.50
2019-02-27T11:57:20.525Z,38.40
2019-02-27T12:00:27.868Z,38.30
2019-02-27T12:03:33.625Z,38.20
2019-02-27T12:06:41.674Z,38.10
2019-02-27T12:09:46.983Z,38.00
2019-02-27T12:12:52.979Z,38.00
2019-02-27T12:16:18.551Z,38.00
2019-02-27T12:19:24.420Z,38.10
2019-02-27T12:22:32.934Z,37.90
2019-02-27T12:25:37.864Z,37.80
2019-02-27T12:28:43.864Z,37.60
2019-02-27T12:31:49.715Z,37.50
2019-02-27T12:34:55.536Z,37.50
2019-02-27T12:38:01.533Z,37.40
2019-02-27T12:41:07.248Z,37.40
2019-02-27T12:44:13.148Z,37.50
2019-02-27T12:47:19.115Z,37.30
2019-02-27T12:50:26.885Z,37.20
2019-02-27T12:53:32.673Z,37.20
2019-02-27T12:56:41.578Z,37.30
2019-02-27T12:59:45.989Z,37.20
2019-02-27T13:02:51.955Z,37.20
2019-02-27T13:05:58.204Z,37.20
2019-02-27T13:09:06.843Z,37.10
2019-02-27T13:12:14.919Z,37.10
2019-02-27T13:15:21.418Z,37.00
2019-02-27T13:18:31.620Z,37.00
2019-02-27T13:21:34.775Z,36.90
2019-02-27T13:24:40.904Z,36.90
2019-02-27T13:27:46.907Z,36.90
2019-02-27T13:30:52.964Z,36.70
2019-02-27T13:33:58.967Z,36.60
2019-02-27T13:37:06.925Z,36.50
2019-02-27T13:40:14.733Z,36.40
2019-02-27T13:43:20.476Z,36.50
2019-02-27T13:46:26.344Z,36.50
2019-02-27T13:49:32.305Z,36.50
2019-02-27T13:52:38.260Z,36.50
2019-02-27T13:55:45.375Z,36.50
2019-02-27T13:58:51.708Z,36.50
2019-02-27T14:02:00.682Z,36.50
2019-02-27T14:05:05.204Z,36.60
2019-02-27T14:08:11.032Z,36.60
2019-02-27T14:11:16.993Z,36.50
2019-02-27T14:14:22.953Z,36.40
2019-02-27T14:17:28.804Z,36.50
2019-02-27T14:20:34.806Z,36.50
2019-02-27T14:23:40.730Z,36.60
2019-02-27T14:26:46.579Z,36.50
2019-02-27T14:29:52.436Z,36.50
2019-02-27T14:32:58.308Z,36.50
2019-02-27T14:36:08.215Z,36.50
2019-02-27T14:39:13.325Z,36.50
2019-02-27T14:42:20.476Z,36.50
2019-02-27T14:45:26.782Z,36.40
2019-02-27T14:48:32.609Z,36.50
2019-02-27T14:51:41.183Z,36.40
2019-02-27T14:54:46.208Z,36.40
2019-02-27T14:57:52.015Z,36.40
2019-02-27T15:00:57.915Z,36.40
2019-02-27T15:04:03.840Z,36.20
2019-02-27T15:07:09.698Z,36.30
2019-02-27T15:10:16.299Z,36.20
2019-02-27T15:13:22.335Z,36.20
2019-02-27T15:16:28.219Z,36.20
2019-02-27T15:19:35.533Z,36.20
2019-02-27T15:22:41.448Z,36.20
2019-02-27T15:25:47.446Z,36.20
2019-02-27T15:28:53.264Z,36.20
2019-02-27T15:31:59.143Z,36.10
2019-02-27T15:35:05.381Z,36.20
2019-02-27T15:38:11.903Z,36.20
2019-02-27T15:41:18.367Z,36.20
2019-02-27T15:44:24.193Z,36.20
2019-02-27T15:47:30.409Z,36.20
2019-02-27T15:50:37.541Z,36.20
2019-02-27T15:53:49.647Z,36.20
2019-02-27T15:56:52.120Z,36.10
2019-02-27T15:59:58.023Z,36.10
2019-02-27T16:03:03.875Z,36.10
2019-02-27T16:06:09.612Z,36.00
2019-02-27T16:09:15.598Z,36.10
2019-02-27T16:12:25.344Z,36.00
2019-02-27T16:15:29.052Z,36.00
2019-02-27T16:18:36.943Z,36.00
2019-02-27T16:21:42.613Z,35.80
2019-02-27T16:24:48.564Z,35.80
2019-02-27T16:27:54.491Z,35.70
2019-02-27T16:31:05.907Z,35.80
2019-02-27T16:34:07.933Z,35.80
2019-02-27T16:37:13.912Z,35.70
2019-02-27T16:40:20.674Z,35.80
2019-02-27T16:43:26.747Z,35.80
2019-02-27T16:46:32.708Z,35.70
2019-02-27T16:49:38.668Z,35.70
2019-02-27T16:52:45.513Z,36.00
2019-02-27T16:55:51.397Z,36.20
2019-02-27T16:58:57.360Z,36.20
2019-02-27T17:02:03.898Z,36.20
2019-02-27T17:05:10.832Z,36.40
2019-02-27T17:08:16.680Z,36.90
2019-02-27T17:11:22.543Z,36.30
2019-02-27T17:14:28.389Z,36.40
2019-02-27T17:17:34.248Z,36.40
2019-02-27T17:20:40.107Z,36.40
2019-02-27T17:23:46.708Z,36.50
2019-02-27T17:26:52.678Z,36.50
2019-02-27T17:30:00.738Z,36.60
2019-02-27T17:33:07.832Z,36.50
2019-02-27T17:36:13.706Z,36.60
2019-02-27T17:39:21.926Z,36.50
2019-02-27T17:42:27.183Z,36.50
2019-02-27T17:45:33.116Z,36.60
2019-02-27T17:48:39.260Z,36.50
2019-02-27T17:51:45.342Z,36.50
2019-02-27T17:55:12.360Z,36.60
2019-02-27T17:58:31.837Z,36.60
2019-02-27T18:01:35.976Z,37.30
2019-02-27T18:04:41.956Z,36.60
2019-02-27T18:07:47.969Z,36.60
2019-02-27T18:10:56.736Z,36.60
2019-02-27T18:14:02.595Z,36.60
2019-02-27T18:17:08.496Z,36.60
2019-02-27T18:20:14.862Z,36.50
2019-02-27T18:23:21.967Z,36.40
2019-02-27T18:26:30.140Z,36.50
2019-02-27T18:29:36.115Z,36.40
2019-02-27T18:32:42.254Z,36.40
2019-02-27T18:35:49.420Z,36.40
2019-02-27T18:38:55.903Z,36.40
2019-02-27T18:42:02.174Z,36.30
2019-02-27T18:45:09.147Z,36.30
2019-02-27T18:48:15.241Z,36.30
2019-02-27T18:51:21.330Z,36.00
2019-02-27T18:54:27.193Z,36.20
2019-02-27T18:57:33.191Z,36.10
2019-02-27T19:00:38.991Z,36.20
2019-02-27T19:03:44.856Z,36.10
2019-02-27T19:06:50.751Z,36.10
2019-02-27T19:09:56.582Z,36.20
2019-02-27T19:13:02.648Z,36.30
2019-02-27T19:16:08.596Z,36.50
2019-02-27T19:19:14.745Z,36.60
2019-02-27T19:22:23.373Z,36.60
2019-02-27T19:25:34.111Z,36.50
2019-02-27T19:28:36.632Z,36.60
2019-02-27T19:31:42.527Z,36.40
2019-02-27T19:34:48.290Z,36.00
2019-02-27T19:37:54.335Z,36.00
2019-02-27T19:41:01.236Z,35.80
2019-02-27T19:44:07.772Z,35.50
2019-02-27T19:47:13.668Z,35.50
2019-02-27T19:50:19.797Z,36.00
2019-02-27T19:53:25.756Z,36.00
2019-02-27T19:56:36.568Z,37.10
2019-02-27T19:59:43.223Z,37.00
2019-02-27T20:02:54.891Z,36.50
2019-02-27T20:05:58.663Z,36.40
2019-02-27T20:09:07.622Z,36.30
2019-02-27T20:12:16.454Z,36.10
2019-02-27T20:15:25.540Z,36.10
2019-02-27T20:18:32.310Z,35.90
2019-02-27T20:21:38.709Z,35.80
2019-02-27T20:24:45.268Z,35.70
2019-02-27T20:27:51.444Z,35.60
2019-02-27T20:30:58.338Z,35.40
2019-02-27T20:34:05.276Z,35.40
2019-02-27T20:37:11.940Z,35.30
2019-02-27T20:40:18.484Z,35.30
2019-02-27T20:43:28.986Z,35.30
2019-02-27T20:46:33.580Z,35.30
2019-02-27T20:49:39.817Z,34.50
2019-02-27T20:52:49.496Z,34.10
2019-02-27T20:55:56.647Z,34.20
2019-02-27T20:59:03.795Z,34.30
2019-02-27T21:02:11.055Z,34.50
2019-02-27T21:05:21.334Z,34.60
2019-02-27T21:08:29.236Z,34.50
2019-02-27T21:11:36.348Z,35.10
2019-02-27T21:14:44.999Z,35.40
2019-02-27T21:17:51.816Z,35.50
2019-02-27T21:20:58.565Z,35.40
2019-02-27T21:24:06.343Z,35.20
2019-02-27T21:27:13.029Z,35.10
2019-02-27T21:30:19.988Z,35.70
2019-02-27T21:33:30.501Z,34.90
2019-02-27T21:36:37.443Z,35.00
2019-02-27T21:39:44.431Z,35.00
2019-02-27T21:42:51.817Z,35.20
2019-02-27T21:46:00.577Z,35.20
2019-02-27T21:49:06.484Z,35.40
2019-02-27T21:52:12.440Z,35.50
2019-02-27T21:55:18.304Z,35.50
2019-02-27T21:58:24.053Z,35.50
2019-02-27T22:01:30.108Z,35.50
2019-02-27T22:04:36.085Z,35.50
2019-02-27T22:07:42.158Z,35.50
2019-02-27T22:10:53.231Z,35.40
2019-02-27T22:13:57.125Z,35.40
2019-02-27T22:17:04.956Z,35.80
2019-02-27T22:20:10.587Z,35.70
2019-02-27T22:23:16.589Z,35.50
2019-02-27T22:26:22.514Z,35.40
2019-02-27T22:29:28.544Z,35.30
2019-02-27T22:32:34.636Z,35.10
2019-02-27T22:35:40.697Z,35.20
2019-02-27T22:38:46.692Z,35.20
2019-02-27T22:41:52.399Z,34.60
2019-02-27T22:45:00.726Z,35.10
2019-02-27T22:48:05.652Z,35.30
2019-02-27T22:51:13.391Z,35.30
2019-02-27T22:54:19.456Z,35.10
2019-02-27T22:57:25.386Z,35.10
2019-02-27T23:01:00.324Z,34.90
2019-02-27T23:04:09.392Z,34.80
2019-02-27T23:07:20.514Z,34.70
2019-02-27T23:10:23.629Z,32.80
2019-02-27T23:13:31.128Z,33.20
2019-02-27T23:16:37.086Z,33.50
2019-02-27T23:19:46.134Z,33.50
2019-02-27T23:22:50.540Z,33.40
2019-02-27T23:25:56.300Z,33.30
2019-02-27T23:29:05.599Z,33.20
2019-02-27T23:32:09.748Z,33.10
2019-02-27T23:35:16.773Z,33.20
2019-02-27T23:38:22.801Z,32.90
2019-02-27T23:41:29.142Z,32.90
2019-02-27T23:44:38.265Z,32.90
2019-02-27T23:47:42.727Z,32.80
2019-02-27T23:51:15.924Z,32.90
2019-02-27T23:54:21.068Z,32.80
2019-02-27T23:57:27.128Z,32.80
